createdAt,value
2018-12-29T00:02:45.609Z,77.22
2018-12-29T00:05:31.944Z,77.50
2018-12-29T00:08:18.262Z,76.92
2018-12-29T00:11:04.552Z,76.92
2018-12-29T00:13:50.874Z,77.05
2018-12-29T00:16:36.942Z,76.65
2018-12-29T00:19:23.286Z,76.90
2018-12-29T00:22:09.614Z,77.16
2018-12-29T00:24:55.952Z,76.82
2018-12-29T00:27:42.099Z,76.67
2018-12-29T00:30:28.214Z,76.58
2018-12-29T00:33:14.279Z,76.81
2018-12-29T00:36:00.672Z,76.37
2018-12-29T00:38:47.034Z,76.72
2018-12-29T00:41:33.374Z,76.11
2018-12-29T00:44:19.452Z,76.86
2018-12-29T00:46:59.464Z,76.57
2018-12-29T00:49:45.812Z,76.12
2018-12-29T00:52:31.987Z,77.53
2018-12-29T00:55:18.066Z,76.27
2018-12-29T00:58:04.407Z,76.76
2018-12-29T01:00:50.797Z,76.09
2018-12-29T01:03:36.865Z,77.53
2018-12-29T01:06:23.217Z,77.42
2018-12-29T01:09:09.573Z,76.71
2018-12-29T01:11:55.933Z,75.97
2018-12-29T01:14:42.261Z,76.62
2018-12-29T01:17:28.613Z,76.98
2018-12-29T01:20:14.938Z,77.94
2018-12-29T01:23:01.054Z,77.00
2018-12-29T01:25:47.228Z,77.04
2018-12-29T01:28:33.326Z,76.54
2018-12-29T01:31:19.423Z,77.02
2018-12-29T01:34:05.541Z,77.39
2018-12-29T01:36:51.886Z,76.82
2018-12-29T01:39:38.242Z,77.22
2018-12-29T01:42:24.643Z,76.90
2018-12-29T01:45:17.102Z,76.77
2018-12-29T01:47:58.744Z,76.82
2018-12-29T01:50:44.852Z,75.79
2018-12-29T01:53:31.230Z,74.87
2018-12-29T01:56:17.335Z,75.89
2018-12-29T01:59:03.452Z,76.02
2018-12-29T02:01:49.808Z,76.42
2018-12-29T02:04:35.903Z,75.96
2018-12-29T02:10:15.948Z,76.18
2018-12-29T02:13:21.945Z,76.66
2018-12-29T02:16:08.017Z,76.90
2018-12-29T02:18:54.108Z,77.97
2018-12-29T02:21:40.250Z,77.89
2018-12-29T02:24:26.568Z,76.53
2018-12-29T02:27:12.863Z,76.79
2018-12-29T02:29:59.194Z,76.06
2018-12-29T02:32:45.278Z,75.95
2018-12-29T02:35:31.344Z,76.04
2018-12-29T02:38:17.690Z,75.89
2018-12-29T02:41:03.770Z,75.40
2018-12-29T02:43:50.096Z,75.18
2018-12-29T02:46:29.923Z,76.05
2018-12-29T02:49:16.289Z,75.55
2018-12-29T02:52:02.628Z,75.17
2018-12-29T02:54:48.965Z,75.13
2018-12-29T02:57:35.069Z,74.04
2018-12-29T03:00:21.409Z,73.80
2018-12-29T03:03:07.538Z,73.79
2018-12-29T03:05:53.850Z,75.34
2018-12-29T03:08:40.225Z,74.10
2018-12-29T03:11:26.313Z,74.13
2018-12-29T03:14:12.679Z,74.55
2018-12-29T03:16:58.763Z,74.36
2018-12-29T03:19:44.845Z,74.55
2018-12-29T03:22:30.955Z,73.79
2018-12-29T03:25:17.029Z,73.45
2018-12-29T03:28:03.388Z,74.05
2018-12-29T03:30:49.441Z,74.18
2018-12-29T03:33:35.554Z,74.00
2018-12-29T03:36:21.603Z,74.91
2018-12-29T03:39:07.704Z,73.98
2018-12-29T03:41:54.023Z,73.32
2018-12-29T03:44:40.073Z,72.63
2018-12-29T03:47:20.412Z,72.37
2018-12-29T03:50:06.794Z,72.42
2018-12-29T03:52:53.154Z,71.87
2018-12-29T03:55:39.234Z,72.89
2018-12-29T03:58:25.327Z,72.43
2018-12-29T04:01:11.669Z,72.17
2018-12-29T04:03:57.800Z,72.18
2018-12-29T04:06:43.865Z,72.06
2018-12-29T04:13:06.019Z,73.43
2018-12-29T04:15:57.887Z,74.46
2018-12-29T04:18:40.374Z,74.54
2018-12-29T04:21:26.826Z,76.40
2018-12-29T04:24:12.898Z,75.88
2018-12-29T04:26:59.273Z,75.25
2018-12-29T04:29:45.359Z,75.48
2018-12-29T04:32:31.693Z,75.50
2018-12-29T04:35:17.790Z,75.61
2018-12-29T04:38:04.131Z,75.85
2018-12-29T04:40:50.215Z,75.39
2018-12-29T04:43:36.573Z,75.04
2018-12-29T04:46:16.173Z,74.49
2018-12-29T04:49:02.255Z,75.00
2018-12-29T04:51:48.576Z,73.29
2018-12-29T04:54:34.653Z,73.91
2018-12-29T04:57:20.979Z,74.38
2018-12-29T05:00:07.174Z,74.28
2018-12-29T05:02:53.519Z,73.69
2018-12-29T05:05:39.658Z,75.13
2018-12-29T05:08:26.059Z,76.03
2018-12-29T05:11:12.445Z,75.83
2018-12-29T05:13:58.553Z,74.35
2018-12-29T05:16:45.016Z,75.11
2018-12-29T05:19:31.432Z,75.60
2018-12-29T05:22:17.497Z,74.75
2018-12-29T05:25:03.859Z,75.24
2018-12-29T05:27:49.929Z,74.85
2018-12-29T05:30:36.292Z,74.19
2018-12-29T05:33:22.375Z,74.53
2018-12-29T05:36:08.461Z,75.21
2018-12-29T05:38:54.804Z,75.55
2018-12-29T05:41:41.166Z,75.82
2018-12-29T05:44:47.118Z,75.73
2018-12-29T05:47:28.138Z,75.70
2018-12-29T05:50:14.203Z,75.64
2018-12-29T05:53:00.281Z,75.66
2018-12-29T05:55:46.664Z,75.96
2018-12-29T05:58:32.958Z,76.00
2018-12-29T06:01:19.028Z,76.48
2018-12-29T06:04:05.113Z,76.51
2018-12-29T06:06:51.446Z,78.07
2018-12-29T06:09:37.824Z,78.38
2018-12-29T06:12:23.899Z,77.91
2018-12-29T06:15:10.014Z,78.20
2018-12-29T06:17:56.094Z,79.22
2018-12-29T06:20:42.435Z,79.49
2018-12-29T06:23:28.762Z,78.75
2018-12-29T06:26:14.865Z,78.39
2018-12-29T06:29:01.174Z,78.52
2018-12-29T06:31:47.519Z,78.56
2018-12-29T06:34:33.569Z,79.08
2018-12-29T06:37:19.643Z,78.89
2018-12-29T06:40:06.000Z,78.43
2018-12-29T06:42:52.051Z,78.15
2018-12-29T06:45:38.136Z,79.16
2018-12-29T06:48:17.924Z,78.31
2018-12-29T06:51:04.003Z,79.07
2018-12-29T06:53:50.082Z,80.26
2018-12-29T06:56:36.193Z,80.75
2018-12-29T06:59:22.556Z,80.66
2018-12-29T07:02:08.640Z,80.42
2018-12-29T07:04:54.982Z,79.87
2018-12-29T07:07:41.070Z,79.60
2018-12-29T07:10:27.176Z,79.52
2018-12-29T07:13:13.401Z,79.15
2018-12-29T07:15:59.491Z,80.13
2018-12-29T07:18:45.602Z,79.72
2018-12-29T07:21:31.735Z,78.97
2018-12-29T07:24:18.082Z,79.57
2018-12-29T07:27:04.187Z,78.55
2018-12-29T07:29:50.278Z,77.85
2018-12-29T07:32:36.358Z,77.68
2018-12-29T07:35:22.675Z,78.39
2018-12-29T07:38:09.016Z,78.04
2018-12-29T07:40:55.428Z,77.67
2018-12-29T07:43:41.748Z,78.19
2018-12-29T07:46:21.115Z,78.26
2018-12-29T07:49:07.212Z,77.74
2018-12-29T07:51:53.374Z,77.53
2018-12-29T07:54:39.808Z,76.67
2018-12-29T07:57:26.171Z,77.00
2018-12-29T08:00:12.510Z,77.17
2018-12-29T08:02:58.606Z,77.50
2018-12-29T08:05:44.697Z,77.74
2018-12-29T08:08:30.792Z,77.13
2018-12-29T08:11:17.163Z,76.69
2018-12-29T08:14:03.248Z,76.19
2018-12-29T08:16:56.668Z,76.32
2018-12-29T08:19:37.628Z,75.75
2018-12-29T08:22:24.185Z,76.31
2018-12-29T08:25:11.718Z,76.04
2018-12-29T08:27:57.820Z,76.79
2018-12-29T08:30:44.187Z,76.64
2018-12-29T08:33:30.288Z,76.17
2018-12-29T08:36:16.692Z,75.71
2018-12-29T08:39:24.795Z,76.62
2018-12-29T08:42:11.145Z,76.21
2018-12-29T08:44:57.227Z,74.65
2018-12-29T08:47:38.200Z,74.99
2018-12-29T08:50:24.291Z,76.11
2018-12-29T08:53:10.378Z,75.48
2018-12-29T08:55:56.744Z,75.54
2018-12-29T08:58:42.852Z,74.92
2018-12-29T09:01:49.089Z,75.61
2018-12-29T09:04:35.415Z,74.92
2018-12-29T09:07:21.792Z,74.66
2018-12-29T09:10:07.922Z,73.99
2018-12-29T09:12:54.261Z,73.10
2018-12-29T09:15:40.366Z,74.93
2018-12-29T09:21:19.175Z,74.65
2018-12-29T09:24:05.507Z,74.81
2018-12-29T09:26:51.598Z,73.93
2018-12-29T09:29:37.700Z,73.16
2018-12-29T09:32:24.040Z,73.87
2018-12-29T09:35:10.430Z,74.43
2018-12-29T09:37:56.527Z,74.47
2018-12-29T09:40:42.592Z,73.45
2018-12-29T09:43:28.684Z,73.61
2018-12-29T09:46:15.022Z,73.12
2018-12-29T09:48:55.274Z,72.58
2018-12-29T09:51:41.599Z,72.35
2018-12-29T09:54:27.874Z,71.94
2018-12-29T09:57:13.948Z,72.48
2018-12-29T10:00:00.350Z,72.46
2018-12-29T10:02:46.697Z,73.67
2018-12-29T10:05:32.745Z,73.36
2018-12-29T10:08:18.851Z,73.12
2018-12-29T10:11:05.195Z,71.84
2018-12-29T10:13:51.274Z,71.12
2018-12-29T10:16:37.627Z,70.89
2018-12-29T10:19:23.718Z,71.47
2018-12-29T10:22:10.285Z,71.19
2018-12-29T10:24:56.610Z,71.99
2018-12-29T10:27:42.708Z,72.11
2018-12-29T10:30:28.797Z,71.96
2018-12-29T10:33:14.896Z,71.60
2018-12-29T10:36:00.988Z,72.55
2018-12-29T10:38:47.339Z,73.40
2018-12-29T10:41:33.767Z,73.70
2018-12-29T10:44:20.089Z,73.12
2018-12-29T10:47:06.226Z,74.14
2018-12-29T10:49:52.589Z,74.86
2018-12-29T10:52:38.673Z,75.03
2018-12-29T10:55:24.720Z,74.11
2018-12-29T10:58:10.937Z,74.69
2018-12-29T11:00:57.252Z,75.05
2018-12-29T11:03:43.356Z,75.20
2018-12-29T11:06:29.479Z,75.75
2018-12-29T11:09:15.554Z,74.86
2018-12-29T11:12:01.843Z,74.91
2018-12-29T11:14:47.939Z,74.89
2018-12-29T11:17:34.033Z,73.89
2018-12-29T11:20:20.390Z,73.99
2018-12-29T11:23:06.496Z,73.37
2018-12-29T11:25:53.103Z,74.40
2018-12-29T11:28:39.241Z,74.68
2018-12-29T11:31:25.646Z,76.70
2018-12-29T11:34:33.773Z,76.79
2018-12-29T11:37:19.850Z,75.94
2018-12-29T11:40:06.046Z,76.11
2018-12-29T11:42:52.131Z,75.43
2018-12-29T11:45:38.467Z,75.82
2018-12-29T11:48:19.539Z,74.42
2018-12-29T11:50:45.977Z,75.40
2018-12-29T11:53:12.408Z,76.45
2018-12-29T11:55:38.621Z,77.16
2018-12-29T11:58:04.785Z,76.38
2018-12-29T12:00:51.136Z,76.17
2018-12-29T12:03:17.412Z,75.27
2018-12-29T12:06:03.771Z,75.41
2018-12-29T12:08:50.106Z,76.03
2018-12-29T12:11:36.454Z,75.52
2018-12-29T12:14:02.764Z,72.39
2018-12-29T12:16:49.121Z,73.52
2018-12-29T12:19:22.993Z,74.53
2018-12-29T12:22:09.374Z,73.94
2018-12-29T12:24:55.465Z,73.21
2018-12-29T12:27:41.809Z,73.12
2018-12-29T12:30:28.160Z,72.03
2018-12-29T12:33:14.518Z,72.38
2018-12-29T12:36:00.883Z,71.88
2018-12-29T12:38:46.952Z,72.33
2018-12-29T12:41:33.050Z,73.36
2018-12-29T12:44:19.460Z,73.37
2018-12-29T12:47:05.795Z,74.26
2018-12-29T12:49:45.908Z,73.65
2018-12-29T12:52:32.223Z,74.59
2018-12-29T12:55:18.601Z,73.77
2018-12-29T12:58:04.854Z,73.36
2018-12-29T13:00:52.849Z,73.27
2018-12-29T13:03:39.331Z,73.50
2018-12-29T13:06:25.422Z,73.48
2018-12-29T13:09:11.743Z,73.53
2018-12-29T13:11:58.085Z,73.00
2018-12-29T13:14:44.156Z,73.34
2018-12-29T13:17:30.379Z,74.28
2018-12-29T13:20:16.713Z,74.41
2018-12-29T13:23:02.995Z,75.14
2018-12-29T13:25:49.340Z,75.36
2018-12-29T13:28:37.583Z,74.78
2018-12-29T13:31:23.896Z,74.83
2018-12-29T13:34:10.271Z,73.49
2018-12-29T13:36:56.575Z,74.45
2018-12-29T13:39:42.692Z,74.88
2018-12-29T13:42:28.767Z,74.93
2018-12-29T13:45:15.329Z,74.96
2018-12-29T13:47:54.871Z,73.49
2018-12-29T13:50:40.965Z,73.20
2018-12-29T13:53:27.048Z,71.79
2018-12-29T13:56:13.146Z,70.89
2018-12-29T13:58:59.895Z,70.65
2018-12-29T14:01:46.306Z,70.65
2018-12-29T14:04:32.699Z,70.97
2018-12-29T14:07:18.857Z,71.46
2018-12-29T14:10:04.933Z,72.35
2018-12-29T14:12:51.010Z,72.77
2018-12-29T14:15:37.088Z,73.06
2018-12-29T14:18:28.199Z,73.48
2018-12-29T14:21:11.413Z,73.93
2018-12-29T14:23:57.757Z,74.14
2018-12-29T14:26:43.828Z,74.36
2018-12-29T14:29:29.902Z,74.85
2018-12-29T14:32:37.797Z,75.14
2018-12-29T14:35:24.004Z,75.11
2018-12-29T14:38:10.354Z,74.85
2018-12-29T14:40:56.424Z,74.77
2018-12-29T14:43:42.532Z,74.23
2018-12-29T14:46:28.605Z,74.70
2018-12-29T14:49:08.371Z,73.39
2018-12-29T14:51:54.445Z,72.72
2018-12-29T14:54:40.560Z,72.89
2018-12-29T14:57:27.257Z,73.18
2018-12-29T15:00:13.321Z,74.57
2018-12-29T15:02:59.418Z,74.22
2018-12-29T15:05:45.765Z,74.30
2018-12-29T15:08:31.870Z,73.52
2018-12-29T15:11:19.664Z,73.56
2018-12-29T15:14:06.257Z,72.55
2018-12-29T15:16:52.664Z,73.25
2018-12-29T15:19:38.757Z,73.62
2018-12-29T15:22:25.124Z,73.72
2018-12-29T15:25:11.259Z,73.63
2018-12-29T15:27:57.865Z,73.93
2018-12-29T15:30:43.940Z,73.89
2018-12-29T15:33:30.308Z,73.38
2018-12-29T15:36:16.758Z,73.73
2018-12-29T15:39:24.934Z,73.77
2018-12-29T15:42:11.381Z,73.92
2018-12-29T15:44:37.575Z,73.79
2018-12-29T15:47:25.804Z,74.09
2018-12-29T15:50:35.583Z,74.16
2018-12-29T15:53:22.374Z,74.35
2018-12-29T15:56:08.463Z,73.70
2018-12-29T15:58:54.832Z,74.04
2018-12-29T16:01:41.209Z,73.73
2018-12-29T16:04:27.544Z,73.23
2018-12-29T16:07:13.740Z,73.27
2018-12-29T16:09:59.825Z,74.13
2018-12-29T16:12:46.185Z,73.81
2018-12-29T16:15:34.165Z,73.28
2018-12-29T16:18:20.592Z,73.27
2018-12-29T16:21:07.043Z,72.83
2018-12-29T16:23:53.254Z,73.01
2018-12-29T16:26:39.662Z,72.90
2018-12-29T16:29:26.144Z,72.80
2018-12-29T16:32:12.311Z,72.75
2018-12-29T16:34:58.423Z,72.62
2018-12-29T16:37:44.593Z,72.08
2018-12-29T16:40:30.959Z,72.23
2018-12-29T16:43:17.029Z,72.20
2018-12-29T16:46:03.400Z,71.92
2018-12-29T16:48:49.756Z,71.74
2018-12-29T16:51:36.099Z,71.65
2018-12-29T16:54:22.432Z,71.10
2018-12-29T16:57:08.521Z,71.46
2018-12-29T16:59:54.724Z,71.02
2018-12-29T17:02:41.348Z,70.72
2018-12-29T17:05:30.320Z,70.80
2018-12-29T17:08:18.574Z,71.04
2018-12-29T17:11:06.561Z,71.08
2018-12-29T17:13:53.233Z,70.60
2018-12-29T17:16:39.754Z,70.34
2018-12-29T17:19:25.943Z,70.25
2018-12-29T17:22:12.046Z,70.58
2018-12-29T17:24:58.550Z,70.00
2018-12-29T17:27:44.999Z,70.13
2018-12-29T17:30:31.092Z,69.64
2018-12-29T17:33:17.445Z,69.54
2018-12-29T17:36:03.536Z,69.61
2018-12-29T17:38:49.617Z,68.91
2018-12-29T17:41:36.002Z,68.82
2018-12-29T17:44:22.161Z,68.84
2018-12-29T17:47:08.283Z,68.99
2018-12-29T17:49:48.043Z,68.51
2018-12-29T17:52:34.360Z,68.65
2018-12-29T17:55:21.026Z,68.32
2018-12-29T17:58:09.011Z,68.35
2018-12-29T18:01:17.171Z,68.32
2018-12-29T18:04:03.552Z,68.47
2018-12-29T18:06:49.852Z,68.28
2018-12-29T18:09:35.919Z,67.88
2018-12-29T18:12:22.276Z,68.36
2018-12-29T18:15:10.518Z,67.73
2018-12-29T18:17:58.763Z,67.70
2018-12-29T18:20:44.877Z,68.02
2018-12-29T18:23:31.327Z,67.56
2018-12-29T18:26:17.532Z,67.33
2018-12-29T18:29:03.625Z,67.22
2018-12-29T18:31:49.812Z,67.06
2018-12-29T18:34:36.165Z,67.87
2018-12-29T18:37:22.722Z,67.91
2018-12-29T18:40:09.115Z,67.65
2018-12-29T18:42:55.289Z,67.58
2018-12-29T18:45:41.690Z,67.16
2018-12-29T18:48:28.108Z,67.02
2018-12-29T18:51:09.679Z,66.67
2018-12-29T18:53:56.041Z,66.59
2018-12-29T18:56:45.588Z,66.75
2018-12-29T18:59:30.655Z,67.81
2018-12-29T19:02:17.301Z,67.80
2018-12-29T19:05:03.574Z,67.77
2018-12-29T19:07:49.666Z,67.44
2018-12-29T19:10:36.039Z,67.49
2018-12-29T19:13:24.278Z,67.01
2018-12-29T19:16:12.301Z,67.02
2018-12-29T19:18:58.384Z,66.58
2018-12-29T19:21:44.448Z,66.54
2018-12-29T19:24:30.869Z,66.89
2018-12-29T19:27:17.034Z,67.08
2018-12-29T19:30:25.496Z,67.76
2018-12-29T19:33:13.579Z,68.30
2018-12-29T19:36:00.006Z,68.60
2018-12-29T19:38:46.355Z,68.29
2018-12-29T19:41:34.339Z,68.66
2018-12-29T19:44:20.710Z,68.55
2018-12-29T19:47:09.000Z,68.80
2018-12-29T19:49:53.553Z,68.74
2018-12-29T19:52:36.819Z,68.59
2018-12-29T19:55:23.180Z,68.37
2018-12-29T19:58:09.420Z,68.86
2018-12-29T20:01:15.723Z,68.79
2018-12-29T20:04:01.884Z,68.46
2018-12-29T20:06:48.225Z,68.55
2018-12-29T20:09:34.345Z,68.25
2018-12-29T20:12:20.401Z,68.19
2018-12-29T20:15:06.603Z,68.25
2018-12-29T20:17:52.972Z,68.38
2018-12-29T20:20:39.056Z,68.29
2018-12-29T20:23:25.618Z,68.41
2018-12-29T20:26:11.679Z,68.45
2018-12-29T20:28:58.064Z,68.41
2018-12-29T20:31:44.124Z,69.56
2018-12-29T20:34:30.257Z,71.58
2018-12-29T20:37:16.417Z,70.97
2018-12-29T20:40:24.718Z,70.57
2018-12-29T20:43:10.836Z,70.61
2018-12-29T20:45:57.211Z,70.77
2018-12-29T20:48:43.313Z,70.73
2018-12-29T20:51:23.906Z,70.60
2018-12-29T20:54:09.994Z,70.59
2018-12-29T20:56:56.317Z,71.18
2018-12-29T20:59:42.389Z,70.72
2018-12-29T21:02:28.450Z,70.41
2018-12-29T21:05:14.850Z,70.49
2018-12-29T21:08:01.170Z,70.11
2018-12-29T21:10:47.515Z,70.83
2018-12-29T21:13:33.861Z,71.49
2018-12-29T21:16:20.284Z,70.57
2018-12-29T21:19:08.660Z,72.07
2018-12-29T21:21:55.084Z,72.52
2018-12-29T21:24:42.283Z,72.65
2018-12-29T21:27:28.390Z,72.00
2018-12-29T21:30:14.756Z,72.75
2018-12-29T21:33:00.851Z,73.16
2018-12-29T21:35:46.970Z,73.04
2018-12-29T21:38:33.160Z,73.26
2018-12-29T21:41:19.516Z,73.12
2018-12-29T21:44:07.796Z,73.07
2018-12-29T21:46:54.129Z,73.37
2018-12-29T21:49:20.624Z,72.92
2018-12-29T21:51:48.753Z,73.38
2018-12-29T21:54:34.831Z,73.82
2018-12-29T21:57:21.625Z,74.06
2018-12-29T22:00:08.134Z,73.62
2018-12-29T22:02:54.238Z,73.53
2018-12-29T22:05:21.242Z,73.22
2018-12-29T22:08:07.583Z,73.40
2018-12-29T22:10:53.928Z,73.29
2018-12-29T22:13:40.315Z,74.06
2018-12-29T22:16:26.684Z,75.00
2018-12-29T22:19:13.000Z,74.32
2018-12-29T22:21:59.078Z,74.78
2018-12-29T22:24:45.402Z,74.04
2018-12-29T22:27:31.755Z,73.36
2018-12-29T22:30:18.105Z,72.77
2018-12-29T22:33:04.225Z,72.41
2018-12-29T22:35:50.643Z,71.70
2018-12-29T22:38:38.624Z,71.82
2018-12-29T22:41:24.733Z,70.74
2018-12-29T22:44:10.932Z,70.58
2018-12-29T22:46:57.006Z,70.58
2018-12-29T22:49:43.389Z,70.12
2018-12-29T22:52:23.590Z,70.42
2018-12-29T22:55:09.681Z,70.89
2018-12-29T22:57:55.977Z,69.96
2018-12-29T23:01:03.836Z,70.00
2018-12-29T23:03:51.810Z,69.87
2018-12-29T23:06:38.138Z,69.57
2018-12-29T23:09:26.118Z,69.75
2018-12-29T23:12:12.204Z,70.00
2018-12-29T23:14:58.627Z,69.25
2018-12-29T23:17:45.581Z,69.35
2018-12-29T23:20:31.932Z,69.72
2018-12-29T23:23:18.026Z,69.37
2018-12-29T23:26:04.695Z,68.77
2018-12-29T23:28:50.815Z,71.24
2018-12-29T23:31:37.253Z,72.96
2018-12-29T23:34:23.607Z,74.02
2018-12-29T23:37:10.080Z,74.21
2018-12-29T23:39:56.176Z,74.25
2018-12-29T23:42:42.636Z,76.97
2018-12-29T23:45:28.963Z,77.25
2018-12-29T23:48:15.060Z,76.68
2018-12-29T23:51:05.336Z,77.15
2018-12-29T23:53:43.234Z,77.00
2018-12-29T23:56:31.189Z,77.33
2018-12-29T23:59:17.281Z,77.17
